| time (UTC) | temp F | wind direction | speed MPH | gust MPH | rain 1hr in | rain 24hr in | rain mn in | humidity % | barometer mb |
| 20260508192030 | 80 | 56 | 6.0 | 9.0 | 0.00 | 0.00 | 0.00 | 21 | 1018.2 |
| 20260508191017 | 80 | 102 | 6.0 | 11.0 | 0.00 | 0.00 | 0.00 | 21 | 1018.4 |
| 20260508190024 | 82 | 167 | 4.0 | 7.0 | 0.00 | 0.00 | 0.00 | 21 | 1018.6 |
| 20260508185027 | 82 | 75 | 5.0 | 7.0 | 0.00 | 0.00 | 0.00 | 22 | 1018.7 |
| 20260508184033 | 79 | 147 | 2.0 | 5.0 | 0.00 | 0.00 | 0.00 | 31 | 1018.7 |
| 20260508183018 | 73 | 136 | 5.0 | 6.0 | 0.00 | 0.00 | 0.00 | 37 | 1018.8 |
| 20260508182025 | 73 | 161 | 5.0 | 7.0 | 0.00 | 0.00 | 0.00 | 39 | 1018.8 |
| 20260508181049 | 76 | 182 | 5.0 | 6.0 | 0.00 | 0.00 | 0.00 | 35 | 1018.9 |
| 20260508180037 | 74 | 137 | 5.0 | 6.0 | 0.00 | 0.00 | 0.00 | 34 | 1019.1 |
| 20260508175039 | 74 | 151 | 5.0 | 7.0 | 0.00 | 0.00 | 0.00 | 33 | 1019.1 |
| 20260508174025 | 76 | 151 | 4.0 | 6.0 | 0.00 | 0.00 | 0.00 | 31 | 1019.2 |
| 20260508173028 | 77 | 168 | 4.0 | 5.0 | 0.00 | 0.00 | 0.00 | 33 | 1019.3 |
| 20260508172016 | 76 | 161 | 3.0 | 5.0 | 0.00 | 0.00 | 0.00 | 34 | 1019.3 |
| 20260508171020 | 76 | 158 | 3.0 | 5.0 | 0.00 | 0.00 | 0.00 | 33 | 1019.1 |
| 20260508170024 | 76 | 157 | 3.0 | 4.0 | 0.00 | 0.00 | 0.00 | 34 | 1019.1 |
| 20260508165030 | 75 | 147 | 3.0 | 5.0 | 0.00 | 0.00 | 0.00 | 35 | 1019.1 |
| 20260508164017 | 73 | 154 | 3.0 | 5.0 | 0.00 | 0.00 | 0.00 | 40 | 1019.1 |
| 20260508163042 | 73 | 142 | 3.0 | 4.0 | 0.00 | 0.00 | 0.00 | 38 | 1019.1 |
| 20260508162025 | 72 | 154 | 3.0 | 4.0 | 0.00 | 0.00 | 0.00 | 40 | 1019.1 |
| 20260508161031 | 71 | 161 | 4.0 | 5.0 | 0.00 | 0.00 | 0.00 | 40 | 1019.1 |
| 20260508160018 | 71 | 166 | 3.0 | 5.0 | 0.00 | 0.00 | 0.00 | 41 | 1019.0 |
| 20260508155021 | 70 | 164 | 3.0 | 4.0 | 0.00 | 0.00 | 0.00 | 41 | 1019.0 |
| 20260508154026 | 69 | 207 | 3.0 | 4.0 | 0.00 | 0.00 | 0.00 | 41 | 1019.0 |
| 20260508153025 | 69 | 150 | 3.0 | 4.0 | 0.00 | 0.00 | 0.00 | 41 | 1019.0 |
| 20260508152017 | 69 | 197 | 3.0 | 4.0 | 0.00 | 0.00 | 0.00 | 42 | 1019.0 |
| 20260508151023 | 69 | 163 | 3.0 | 4.0 | 0.00 | 0.00 | 0.00 | 42 | 1018.8 |
| 20260508150021 | 69 | 178 | 2.0 | 4.0 | 0.00 | 0.00 | 0.00 | 42 | 1018.9 |
| 20260508145020 | 70 | 98 | 1.0 | 2.0 | 0.00 | 0.00 | 0.00 | 38 | 1018.9 |
| 20260508144018 | 70 | 83 | 2.0 | 3.0 | 0.00 | 0.00 | 0.00 | 38 | 1018.9 |
| 20260508143017 | 66 | 113 | 0.0 | 2.0 | 0.00 | 0.00 | 0.00 | 47 | 1018.8 |
| 20260508142016 | 63 | 0.0 | 0.0 | 0.00 | 0.00 | 0.00 | 50 | 1018.8 | |
| 20260508141053 | 62 | 259 | 0.0 | 2.0 | 0.00 | 0.00 | 0.00 | 53 | 1018.7 |
| 20260508140021 | 59 | 135 | 0.0 | 2.0 | 0.00 | 0.00 | 0.00 | 56 | 1018.6 |
| 20260508135024 | 57 | 8 | 0.0 | 2.0 | 0.00 | 0.00 | 0.00 | 59 | 1018.6 |
| 20260508134050 | 52 | 342 | 0.0 | 2.0 | 0.00 | 0.00 | 0.00 | 68 | 1018.5 |
| 20260508133015 | 49 | 277 | 2.0 | 2.0 | 0.00 | 0.00 | 0.00 | 72 | 1018.4 |
| 20260508132021 | 47 | 338 | 0.0 | 1.0 | 0.00 | 0.00 | 0.00 | 75 | 1018.4 |
| 20260508131028 | 44 | 270 | 0.0 | 1.0 | 0.00 | 0.00 | 0.00 | 77 | 1018.2 |
| 20260508130034 | 45 | 0.0 | 0.0 | 0.00 | 0.00 | 0.00 | 75 | 1018.1 | |
| 20260508125017 | 45 | 0.0 | 0.0 | 0.00 | 0.00 | 0.00 | 75 | 1017.9 | |
| 20260508124020 | 45 | 308 | 2.0 | 2.0 | 0.00 | 0.00 | 0.00 | 76 | 1017.9 |
| 20260508123027 | 44 | 0.0 | 0.0 | 0.00 | 0.00 | 0.00 | 75 | 1017.9 | |
| 20260508122031 | 44 | 0.0 | 3.0 | 0.00 | 0.00 | 0.00 | 75 | 1017.8 | |
| 20260508121017 | 44 | 270 | 2.0 | 2.0 | 0.00 | 0.00 | 0.00 | 74 | 1017.6 |
| 20260508120021 | 45 | 0.0 | 0.0 | 0.00 | 0.00 | 0.00 | 72 | 1017.6 | |
| 20260508115026 | 46 | 0.0 | 0.0 | 0.00 | 0.00 | 0.00 | 72 | 1017.5 | |
| 20260508114030 | 46 | 293 | 0.0 | 2.0 | 0.00 | 0.00 | 0.00 | 71 | 1017.4 |
| 20260508113021 | 46 | 272 | 1.0 | 2.0 | 0.00 | 0.00 | 0.00 | 71 | 1017.4 |
| 20260508112021 | 46 | 315 | 0.0 | 1.0 | 0.00 | 0.00 | 0.00 | 71 | 1017.2 |
| 20260508111025 | 46 | 280 | 1.0 | 2.0 | 0.00 | 0.00 | 0.00 | 70 | 1017.1 |
| 20260508110031 | 46 | 270 | 1.0 | 2.0 | 0.00 | 0.00 | 0.00 | 70 | 1017.2 |
| 20260508105016 | 46 | 109 | 1.0 | 2.0 | 0.00 | 0.00 | 0.00 | 70 | 1017.0 |
| 20260508104044 | 46 | 270 | 1.0 | 2.0 | 0.00 | 0.00 | 0.00 | 69 | 1017.0 |
| 20260508103028 | 46 | 0.0 | 0.0 | 0.00 | 0.00 | 0.00 | 69 | 1017.0 | |
| 20260508102031 | 46 | 0.0 | 0.0 | 0.00 | 0.00 | 0.00 | 68 | 1017.0 | |
| 20260508101018 | 47 | 170 | 1.0 | 2.0 | 0.00 | 0.00 | 0.00 | 68 | 1016.9 |
| 20260508100029 | 47 | 270 | 0.0 | 1.0 | 0.00 | 0.00 | 0.00 | 67 | 1016.9 |
| 20260508095028 | 48 | 262 | 1.0 | 2.0 | 0.00 | 0.00 | 0.00 | 64 | 1016.9 |
| 20260508094055 | 47 | 16 | 1.0 | 2.0 | 0.00 | 0.00 | 0.00 | 65 | 1016.8 |
| 20260508093018 | 48 | 0.0 | 0.0 | 0.00 | 0.00 | 0.00 | 65 | 1016.6 | |
| 20260508092023 | 48 | 0.0 | 0.0 | 0.00 | 0.00 | 0.00 | 64 | 1016.6 | |
| 20260508091029 | 48 | 311 | 2.0 | 3.0 | 0.00 | 0.00 | 0.00 | 64 | 1016.6 |
| 20260508090053 | 47 | 0.0 | 0.0 | 0.00 | 0.00 | 0.00 | 66 | 1016.6 | |
| 20260508085019 | 48 | 113 | 1.0 | 2.0 | 0.00 | 0.00 | 0.00 | 66 | 1016.5 |
| 20260508084024 | 48 | 0.0 | 0.0 | 0.00 | 0.00 | 0.00 | 65 | 1016.5 | |
| 20260508083028 | 48 | 270 | 1.0 | 2.0 | 0.00 | 0.00 | 0.00 | 66 | 1016.5 |
| 20260508082037 | 48 | 270 | 1.0 | 2.0 | 0.00 | 0.00 | 0.00 | 64 | 1016.6 |
| 20260508081020 | 49 | 0.0 | 0.0 | 0.00 | 0.00 | 0.00 | 63 | 1016.5 | |
| 20260508080027 | 50 | 23 | 0.0 | 1.0 | 0.00 | 0.00 | 0.00 | 62 | 1016.5 |
| 20260508075025 | 49 | 256 | 2.0 | 3.0 | 0.00 | 0.00 | 0.00 | 63 | 1016.5 |
| 20260508074016 | 49 | 0.0 | 0.0 | 0.00 | 0.00 | 0.00 | 62 | 1016.5 | |
| 20260508073022 | 50 | 0.0 | 0.0 | 0.00 | 0.00 | 0.00 | 61 | 1016.5 | |
| 20260508072020 | 50 | 300 | 1.0 | 2.0 | 0.00 | 0.00 | 0.00 | 61 | 1016.6 |
| 20260508071040 | 51 | 338 | 1.0 | 2.0 | 0.00 | 0.00 | 0.00 | 60 | 1016.5 |
| 20260508070017 | 51 | 107 | 1.0 | 2.0 | 0.00 | 0.00 | 0.00 | 60 | 1016.6 |
| 20260508065016 | 51 | 304 | 0.0 | 1.0 | 0.00 | 0.00 | 0.00 | 60 | 1016.5 |
| 20260508064026 | 51 | 0.0 | 0.0 | 0.00 | 0.00 | 0.00 | 60 | 1016.5 | |
| 20260508063031 | 51 | 128 | 0.0 | 1.0 | 0.00 | 0.00 | 0.00 | 61 | 1016.4 |
| 20260508062021 | 52 | 0.0 | 0.0 | 0.00 | 0.00 | 0.00 | 61 | 1016.1 | |
| 20260508061027 | 52 | 236 | 1.0 | 2.0 | 0.00 | 0.00 | 0.00 | 61 | 1016.1 |
| 20260508060029 | 53 | 0.0 | 0.0 | 0.00 | 0.00 | 0.00 | 60 | 1016.1 | |
| 20260508055032 | 53 | 0.0 | 2.0 | 0.00 | 0.00 | 0.00 | 59 | 1016.1 | |
| 20260508054019 | 53 | 0.0 | 0.0 | 0.00 | 0.00 | 0.00 | 55 | 1016.0 | |
| 20260508053023 | 54 | 0.0 | 0.0 | 0.00 | 0.00 | 0.00 | 56 | 1015.9 | |
| 20260508052028 | 54 | 0.0 | 0.0 | 0.00 | 0.00 | 0.00 | 56 | 1015.9 | |
| 20260508051016 | 55 | 0.0 | 0.0 | 0.00 | 0.00 | 0.00 | 56 | 1015.9 | |
| 20260508050019 | 56 | 0.0 | 0.0 | 0.00 | 0.00 | 0.00 | 56 | 1015.9 | |
| 20260508045024 | 56 | 357 | 1.0 | 2.0 | 0.00 | 0.00 | 0.00 | 58 | 1015.9 |
| 20260508044029 | 56 | 347 | 0.0 | 2.0 | 0.00 | 0.00 | 0.00 | 58 | 1015.9 |
| 20260508043037 | 56 | 0.0 | 0.0 | 0.00 | 0.00 | 0.00 | 58 | 1015.9 | |
| 20260508042021 | 57 | 296 | 0.0 | 2.0 | 0.00 | 0.00 | 0.00 | 57 | 1015.9 |
| 20260508041025 | 58 | 270 | 0.0 | 1.0 | 0.00 | 0.00 | 0.00 | 55 | 1015.9 |
| 20260508040029 | 59 | 293 | 0.0 | 2.0 | 0.00 | 0.00 | 0.00 | 54 | 1015.9 |
| 20260508035016 | 59 | 0.0 | 0.0 | 0.00 | 0.00 | 0.00 | 54 | 1015.7 | |
| 20260508034021 | 60 | 0.0 | 0.0 | 0.00 | 0.00 | 0.00 | 52 | 1015.6 | |
| 20260508033026 | 60 | 273 | 1.0 | 2.0 | 0.00 | 0.00 | 0.00 | 52 | 1015.5 |
| 20260508032031 | 61 | 270 | 1.0 | 2.0 | 0.00 | 0.00 | 0.00 | 50 | 1015.5 |
| 20260508031018 | 62 | 11 | 0.0 | 2.0 | 0.00 | 0.00 | 0.00 | 47 | 1015.3 |
| 20260508030022 | 63 | 0.0 | 0.0 | 0.00 | 0.00 | 0.00 | 45 | 1015.3 | |
| 20260508025026 | 65 | 0.0 | 0.0 | 0.00 | 0.00 | 0.00 | 43 | 1015.3 | |
| 20260508024035 | 67 | 0.0 | 0.0 | 0.00 | 0.00 | 0.00 | 44 | 1015.2 | |
| 20260508023018 | 69 | 225 | 0.0 | 1.0 | 0.00 | 0.00 | 0.00 | 43 | 1015.1 |
| 20260508022023 | 71 | 161 | 1.0 | 2.0 | 0.00 | 0.00 | 0.00 | 44 | 1015.0 |
| 20260508021029 | 74 | 171 | 1.0 | 2.0 | 0.00 | 0.00 | 0.00 | 39 | 1014.9 |
| 20260508020052 | 75 | 0.0 | 0.0 | 0.00 | 0.00 | 0.00 | 35 | 1014.9 | |
| 20260508015019 | 75 | 133 | 2.0 | 3.0 | 0.00 | 0.00 | 0.00 | 36 | 1014.9 |
| 20260508014045 | 77 | 92 | 1.0 | 2.0 | 0.00 | 0.00 | 0.00 | 38 | 1014.9 |
| 20260508013050 | 77 | 92 | 1.0 | 2.0 | 0.00 | 0.00 | 0.00 | 31 | 1014.9 |
| 20260508012037 | 75 | 155 | 2.0 | 2.0 | 0.00 | 0.00 | 0.00 | 29 | 1015.1 |
| 20260508011019 | 73 | 159 | 2.0 | 3.0 | 0.00 | 0.00 | 0.00 | 31 | 1015.1 |
| 20260508010027 | 74 | 159 | 2.0 | 3.0 | 0.00 | 0.00 | 0.00 | 32 | 1015.1 |
| 20260508005049 | 75 | 110 | 2.0 | 2.0 | 0.00 | 0.00 | 0.00 | 35 | 1015.3 |
| 20260508004016 | 76 | 108 | 2.0 | 3.0 | 0.00 | 0.00 | 0.00 | 35 | 1015.3 |
| 20260508003021 | 78 | 167 | 3.0 | 4.0 | 0.00 | 0.00 | 0.00 | 28 | 1015.4 |
| 20260508002025 | 82 | 283 | 0.0 | 2.0 | 0.00 | 0.00 | 0.00 | 19 | 1015.5 |
| 20260508001024 | 83 | 252 | 2.0 | 3.0 | 0.00 | 0.00 | 0.00 | 21 | 1015.5 |
| 20260508000058 | 82 | 205 | 2.0 | 3.0 | 0.00 | 0.00 | 0.00 | 21 | 1015.6 |
| 20260507235021 | 82 | 165 | 3.0 | 5.0 | 0.00 | 0.00 | 0.00 | 22 | 1015.9 |
| 20260507234020 | 84 | 196 | 2.0 | 4.0 | 0.00 | 0.00 | 0.00 | 20 | 1015.9 |
| 20260507233019 | 84 | 202 | 3.0 | 6.0 | 0.00 | 0.00 | 0.00 | 20 | 1015.9 |
| 20260507232020 | 83 | 195 | 3.0 | 4.0 | 0.00 | 0.00 | 0.00 | 20 | 1015.9 |
| 20260507231036 | 83 | 141 | 3.0 | 4.0 | 0.00 | 0.00 | 0.00 | 19 | 1015.9 |
| 20260507230015 | 81 | 190 | 3.0 | 5.0 | 0.00 | 0.00 | 0.00 | 20 | 1016.1 |
| 20260507225053 | 81 | 159 | 4.0 | 7.0 | 0.00 | 0.00 | 0.00 | 20 | 1016.1 |
| 20260507224018 | 83 | 177 | 5.0 | 6.0 | 0.00 | 0.00 | 0.00 | 19 | 1016.3 |
| 20260507223023 | 81 | 163 | 4.0 | 6.0 | 0.00 | 0.00 | 0.00 | 20 | 1016.5 |
| 20260507222029 | 80 | 210 | 4.0 | 5.0 | 0.00 | 0.00 | 0.00 | 21 | 1016.6 |
| 20260507221032 | 81 | 180 | 4.0 | 7.0 | 0.00 | 0.00 | 0.00 | 21 | 1016.7 |
| 20260507220019 | 81 | 199 | 5.0 | 7.0 | 0.00 | 0.00 | 0.00 | 21 | 1016.9 |
| 20260507215023 | 82 | 192 | 6.0 | 8.0 | 0.00 | 0.00 | 0.00 | 20 | 1016.9 |
| 20260507214028 | 84 | 172 | 5.0 | 8.0 | 0.00 | 0.00 | 0.00 | 19 | 1017.1 |
| 20260507213015 | 86 | 106 | 3.0 | 5.0 | 0.00 | 0.00 | 0.00 | 18 | 1017.3 |
| 20260507212020 | 83 | 158 | 4.0 | 6.0 | 0.00 | 0.00 | 0.00 | 19 | 1017.4 |
| 20260507211026 | 82 | 183 | 5.0 | 7.0 | 0.00 | 0.00 | 0.00 | 20 | 1017.6 |
| 20260507210029 | 81 | 154 | 5.0 | 7.0 | 0.00 | 0.00 | 0.00 | 19 | 1017.9 |
| 20260507205016 | 80 | 160 | 5.0 | 7.0 | 0.00 | 0.00 | 0.00 | 20 | 1017.9 |
| 20260507204022 | 79 | 148 | 5.0 | 7.0 | 0.00 | 0.00 | 0.00 | 21 | 1018.0 |
| 20260507203025 | 79 | 138 | 6.0 | 7.0 | 0.00 | 0.00 | 0.00 | 21 | 1018.1 |
| 20260507202030 | 77 | 118 | 6.0 | 9.0 | 0.00 | 0.00 | 0.00 | 21 | 1018.2 |
| 20260507201039 | 76 | 147 | 6.0 | 7.0 | 0.00 | 0.00 | 0.00 | 21 | 1018.4 |
| 20260507200022 | 78 | 132 | 6.0 | 9.0 | 0.00 | 0.00 | 0.00 | 22 | 1018.4 |
| 20260507195028 | 78 | 127 | 6.0 | 8.0 | 0.00 | 0.00 | 0.00 | 20 | 1018.7 |
| 20260507194030 | 79 | 120 | 5.0 | 8.0 | 0.00 | 0.00 | 0.00 | 19 | 1018.8 |
| 20260507193018 | 79 | 122 | 5.0 | 7.0 | 0.00 | 0.00 | 0.00 | 20 | 1018.8 |